Bexar, Arkansas
Current Conditions -  °F | °C
As of 7:03 AM on Tuesday 21 Oct 2014 (Local Time) from KBPK Reporting Station
Moderate Fog Moderate Fog  
Wind Chill: 11°   Ceiling: 100
Heat Index: 11°   Visibility: 0.25mi
Dew Point: 10°   Wind: 0mph
Humidity: 96%   Direction: NA
Pressure: 30.1"   Gusts: NA
Location:  36.29°N, 92°W
Report Text: KBPK 211203Z AUTO 00000KT 1/4SM FG VV001 11/10 A3010 RMK AO2 T01060100
Loading
Personal Weather Stations






























Interactive Weather Map
Tropical Storm Tracking
New forecast layout! Learn more

10-Day Weather Forecast

Advertisements
Track Severe Weather on mobile